| Date | Time | Temp. (oF) | Dew Point (oF) | Rel. Hum. (%) | Press. (in.) | Wind Dir. (deg.) | Wind Speed (mph) | Hourly Rainfall (i n.) |
|
|---|---|---|---|---|---|---|---|---|---|
| 1 | 08/21 | 24:00 | 62 | 59 | 92 | 30.27 | 140 | 2 | 0.02 |
| 2 | 08/20 | 23:00 | 63 | 60 | 91 | 30.27 | 140 | 2 | 0.09 |
| 3 | 08/20 | 22:00 | 64 | 60 | 88 | 30.28 | 10 | 2 | 0.12 |
| 4 | 08/20 | 21:00 | 67 | 58 | 75 | 30.25 | 290 | 2 | 0.00 |
| 5 | 08/20 | 20:00 | 68 | 60 | 77 | 30.24 | 270 | 2 | 0.00 |
| 6 | 08/20 | 19:00 | 69 | 61 | 77 | 30.21 | 280 | 6 | 0.00 |
| 7 | 08/20 | 18:00 | 70 | 62 | 76 | 30.18 | 140 | 2 | 0.00 |
| 8 | 08/20 | 17:00 | 70 | 62 | 77 | 30.17 | 40 | 4 | 0.00 |
| 9 | 08/20 | 16:00 | 71 | 63 | 77 | 30.17 | 310 | 4 | 0.00 |
| 10 | 08/20 | 15:00 | 71 | 63 | 78 | 30.18 | 330 | 4 | 0.00 |
| 11 | 08/20 | 14:00 | 71 | 64 | 80 | 30.19 | 270 | 2 | 0.01 |
| 12 | 08/20 | 13:00 | 73 | 64 | 75 | 30.18 | 330 | 4 | 0.00 |
| 13 | 08/20 | 12:00 | 72 | 66 | 83 | 30.19 | 350 | 1 | 0.00 |
| 14 | 08/20 | 11:00 | 73 | 66 | 79 | 30.17 | 140 | 2 | 0.00 |
| 15 | 08/20 | 10:00 | 73 | 67 | 82 | 30.18 | 110 | 4 | 0.00 |
| 16 | 08/20 | 09:00 | 71 | 66 | 86 | 30.19 | 100 | 2 | 0.00 |
| 17 | 08/20 | 08:00 | 70 | 66 | 88 | 30.20 | 30 | 1 | 0.00 |
| 18 | 08/20 | 07:00 | 71 | 65 | 82 | 30.17 | 150 | 0 | 0.00 |
| 19 | 08/20 | 06:00 | 71 | 64 | 79 | 30.19 | 150 | 1 | 0.00 |
| 20 | 08/20 | 05:00 | 73 | 64 | 75 | 30.17 | 110 | 4 | 0.00 |
| 21 | 08/20 | 04:00 | 73 | 64 | 74 | 30.18 | 170 | 2 | 0.00 |
| 22 | 08/20 | 03:00 | 72 | 63 | 76 | 30.18 | 90 | 1 | 0.00 |
| 23 | 08/20 | 02:00 | 75 | 64 | 70 | 30.19 | 160 | 0 | 0.00 |
| 24 | 08/20 | 01:00 | 74 | 64 | 72 | 30.21 | 90 | 2 | 0.00 |